Time;durP1;ratioP1;P1;durP2;ratioP2;P2;SDS_P1;SDS_P2;PMS_P1;PMS_P2;Temp;Humidity;BMP_temperature;BMP_pressure;BME280_temperature;BME280_humidity;BME280_pressure;Samples;Min_cycle;Max_cycle;Signal;HPM_P1;HPM_P2
2022/12/14 00:01:11;;;;;;;;;;;-3.00;99.90;;;;;;5066406;28;19932;-76
2022/12/14 00:03:37;;;;;;;;;;;-3.20;99.90;;;;;;5065310;28;20418;-77
2022/12/14 00:06:12;;;;;;;;;;;-3.10;99.90;;;;;;5065030;28;19916;-77
2022/12/14 00:08:38;;;;;;;;;;;-3.10;99.90;;;;;;5065448;28;20303;-77
2022/12/14 00:11:03;;;;;;;;;;;-3.20;99.90;;;;;;5066566;28;19912;-77
2022/12/14 00:13:29;;;;;;;;;;;-3.10;99.90;;;;;;5067858;28;19912;-76
2022/12/14 00:15:54;;;;;;;;;;;-3.20;99.90;;;;;;5069169;28;20388;-77
2022/12/14 00:18:20;;;;;;;;;;;-3.10;99.90;;;;;;5068996;28;19913;-77
2022/12/14 00:20:45;;;;;;;;;;;-3.20;99.90;;;;;;5067960;28;19913;-77
2022/12/14 00:23:11;;;;;;;;;;;-3.10;99.90;;;;;;5068907;28;19919;-77
2022/12/14 00:25:36;;;;;;;;;;;-3.00;99.90;;;;;;5068610;28;19916;-76
2022/12/14 00:28:02;;;;;;;;;;;-3.00;99.90;;;;;;5068063;28;19915;-76
2022/12/14 00:30:27;;;;;;;;;;;-2.50;99.90;;;;;;5069679;28;19912;-77
2022/12/14 00:32:53;;;;;;;;;;;-2.90;99.90;;;;;;5070022;28;19912;-77
2022/12/14 00:35:18;;;;;;;;;;;-2.90;99.90;;;;;;5069687;28;19932;-77
2022/12/14 00:37:44;;;;;;;;;;;-2.90;99.90;;;;;;5068883;28;19908;-77
2022/12/14 00:40:10;;;;;;;;;;;-2.70;99.90;;;;;;5069858;28;19912;-77
2022/12/14 00:42:36;;;;;;;;;;;-2.80;99.90;;;;;;5069769;28;19913;-77
2022/12/14 00:45:02;;;;;;;;;;;-2.70;99.90;;;;;;5068274;28;19908;-77
2022/12/14 00:47:28;;;;;;;;;;;-2.80;99.90;;;;;;5069257;28;20015;-76
2022/12/14 00:49:53;;;;;;;;;;;-2.80;99.90;;;;;;5069251;28;20007;-76
2022/12/14 00:52:19;;;;;;;;;;;-2.80;99.90;;;;;;5068626;28;20019;-76
2022/12/14 00:54:44;;;;;;;;;;;-2.20;99.90;;;;;;5068386;28;19912;-77
2022/12/14 00:57:10;;;;;;;;;;;-2.70;99.90;;;;;;5068061;28;19917;-76
2022/12/14 00:59:35;;;;;;;;;;;-2.60;99.90;;;;;;5067750;28;20397;-76
2022/12/14 01:02:01;;;;;;;;;;;-2.60;99.90;;;;;;5067927;28;19924;-76
2022/12/14 01:04:27;;;;;;;;;;;-2.60;99.90;;;;;;5068571;28;19915;-77
2022/12/14 01:06:53;;;;;;;;;;;-2.50;99.90;;;;;;5069242;28;19986;-77
2022/12/14 01:09:19;;;;;;;;;;;-2.50;99.90;;;;;;5068218;28;20395;-76
2022/12/14 01:11:45;;;;;;;;;;;-2.50;99.90;;;;;;5068915;28;20313;-77
2022/12/14 01:14:11;;;;;;;;;;;-2.40;99.90;;;;;;5067671;28;19912;-77
2022/12/14 01:16:37;;;;;;;;;;;-2.30;99.90;;;;;;5068636;28;19919;-77
2022/12/14 01:19:02;;;;;;;;;;;-2.30;99.90;;;;;;5069076;28;19913;-77
2022/12/14 01:21:28;;;;;;;;;;;-2.20;99.90;;;;;;5067835;28;19947;-77
2022/12/14 01:23:55;;;;;;;;;;;-2.30;99.90;;;;;;5067092;28;20382;-77
2022/12/14 01:26:22;;;;;;;;;;;-2.20;99.90;;;;;;5068898;28;19926;-77
2022/12/14 01:28:51;;;;;;;;;;;-2.20;99.90;;;;;;5069056;28;19999;-77
2022/12/14 01:31:17;;;;;;;;;;;-2.00;99.90;;;;;;5069203;28;19959;-77
2022/12/14 01:33:46;;;;;;;;;;;-2.00;99.90;;;;;;5069060;28;20003;-77
2022/12/14 01:36:15;;;;;;;;;;;-2.00;99.90;;;;;;5067519;28;19955;-77
2022/12/14 01:38:42;;;;;;;;;;;-2.10;99.90;;;;;;5064656;28;20519;-77
2022/12/14 01:41:08;;;;;;;;;;;-2.10;99.90;;;;;;5068514;28;19913;-77
2022/12/14 01:43:53;;;;;;;;;;;-2.20;99.90;;;;;;5068708;28;19915;-77
2022/12/14 01:46:37;;;;;;;;;;;-2.20;99.90;;;;;;5067249;28;19916;-77
2022/12/14 01:49:09;;;;;;;;;;;-2.30;99.90;;;;;;5067170;28;19908;-77
2022/12/14 01:51:35;;;;;;;;;;;-2.40;99.90;;;;;;5067123;28;20367;-77
2022/12/14 01:54:03;;;;;;;;;;;-2.40;99.90;;;;;;5068893;28;19997;-77
2022/12/14 01:56:29;;;;;;;;;;;-2.40;99.90;;;;;;5067915;28;19983;-76
2022/12/14 01:58:56;;;;;;;;;;;-2.40;99.90;;;;;;5068474;28;19985;-77
2022/12/14 02:01:22;;;;;;;;;;;-2.40;99.90;;;;;;5068557;28;19920;-77
2022/12/14 02:03:49;;;;;;;;;;;-2.40;99.90;;;;;;5069280;28;19923;-77
2022/12/14 02:06:35;;;;;;;;;;;-2.30;99.90;;;;;;5068539;28;19978;-77
2022/12/14 02:09:04;;;;;;;;;;;-2.30;99.90;;;;;;5066542;28;19991;-77
2022/12/14 02:11:34;;;;;;;;;;;-2.30;99.90;;;;;;5065640;28;20260;-76
2022/12/14 02:14:00;;;;;;;;;;;-2.10;99.90;;;;;;5066569;28;19908;-76
2022/12/14 02:16:26;;;;;;;;;;;-2.20;99.90;;;;;;5067593;28;20661;-76
2022/12/14 02:18:52;;;;;;;;;;;-2.10;99.90;;;;;;5066630;28;19919;-77
2022/12/14 02:21:35;;;;;;;;;;;-2.10;99.90;;;;;;5066340;28;19913;-77
2022/12/14 02:24:16;;;;;;;;;;;-2.10;99.90;;;;;;5066385;28;20414;-77
2022/12/14 02:26:45;;;;;;;;;;;-2.00;99.90;;;;;;5065725;28;20015;-75
2022/12/14 02:29:19;;;;;;;;;;;-2.00;99.90;;;;;;5066457;28;19959;-76
2022/12/14 02:31:55;;;;;;;;;;;-2.00;99.90;;;;;;5066224;28;19919;-76
2022/12/14 02:34:40;;;;;;;;;;;-2.10;99.90;;;;;;5065854;28;19936;-76
2022/12/14 02:37:15;;;;;;;;;;;-2.10;99.90;;;;;;5065482;28;20335;-77
2022/12/14 02:39:40;;;;;;;;;;;-2.10;99.90;;;;;;5066009;28;20454;-76
2022/12/14 02:42:12;;;;;;;;;;;-2.10;99.90;;;;;;5065736;28;20399;-77
2022/12/14 02:44:37;;;;;;;;;;;-2.10;99.90;;;;;;5066978;28;20084;-76
2022/12/14 02:47:06;;;;;;;;;;;-2.10;99.90;;;;;;5066089;28;20037;-76
2022/12/14 02:49:35;;;;;;;;;;;-2.10;99.90;;;;;;5065824;28;19913;-77
2022/12/14 02:52:05;;;;;;;;;;;-2.20;99.90;;;;;;5066827;28;20440;-77
2022/12/14 02:54:36;;;;;;;;;;;-2.10;99.90;;;;;;5065815;28;19934;-77
2022/12/14 02:57:12;;;;;;;;;;;-2.10;99.90;;;;;;5065540;28;19958;-76
2022/12/14 02:59:39;;;;;;;;;;;-2.10;99.90;;;;;;5067255;28;19955;-78
2022/12/14 03:02:04;;;;;;;;;;;-2.10;99.90;;;;;;5064883;28;20361;-77
2022/12/14 03:04:30;;;;;;;;;;;-2.10;99.90;;;;;;5065694;28;19913;-76
2022/12/14 03:06:59;;;;;;;;;;;-2.10;99.90;;;;;;5066713;28;19963;-76
2022/12/14 03:09:26;;;;;;;;;;;-2.10;99.90;;;;;;5066902;28;19920;-77
2022/12/14 03:12:10;;;;;;;;;;;-2.00;99.90;;;;;;5065385;28;19913;-77
2022/12/14 03:14:39;;;;;;;;;;;-2.10;99.90;;;;;;5066669;28;19974;-77
2022/12/14 03:17:13;;;;;;;;;;;-2.10;99.90;;;;;;5065931;28;20339;-77
2022/12/14 03:19:51;;;;;;;;;;;-2.20;99.90;;;;;;5065445;28;19920;-77
2022/12/14 03:22:19;;;;;;;;;;;-2.10;99.90;;;;;;5062654;28;19955;-77
2022/12/14 03:24:48;;;;;;;;;;;-2.20;99.90;;;;;;5066654;28;19982;-77
2022/12/14 03:27:16;;;;;;;;;;;-2.20;99.90;;;;;;5066896;28;19960;-77
2022/12/14 03:29:54;;;;;;;;;;;-2.10;99.90;;;;;;5065135;28;19913;-77
2022/12/14 03:32:22;;;;;;;;;;;-2.20;99.90;;;;;;5066937;28;20365;-77
2022/12/14 03:34:51;;;;;;;;;;;-2.10;99.90;;;;;;5065693;28;20008;-77
2022/12/14 03:37:31;;;;;;;;;;;-1.90;99.90;;;;;;5066809;28;19919;-77
2022/12/14 03:39:57;;;;;;;;;;;-2.20;99.90;;;;;;5065028;28;19916;-77
2022/12/14 03:42:32;;;;;;;;;;;-1.70;99.90;;;;;;5066702;28;19913;-77
2022/12/14 03:45:06;;;;;;;;;;;-2.20;99.90;;;;;;5066343;28;19916;-77
2022/12/14 03:47:38;;;;;;;;;;;-2.20;99.90;;;;;;5068287;28;20441;-76
2022/12/14 03:50:23;;;;;;;;;;;-2.30;99.90;;;;;;5070460;28;19908;-77
2022/12/14 03:52:54;;;;;;;;;;;-2.30;99.90;;;;;;5069325;28;19912;-76
2022/12/14 03:55:32;;;;;;;;;;;-2.20;99.90;;;;;;5069005;28;19912;-76
2022/12/14 03:58:16;;;;;;;;;;;-2.10;99.90;;;;;;5068834;28;19916;-77
2022/12/14 04:00:48;;;;;;;;;;;-2.00;99.90;;;;;;5070304;28;19908;-78
2022/12/14 04:03:22;;;;;;;;;;;-1.90;99.90;;;;;;5070977;28;20335;-77
2022/12/14 04:05:51;;;;;;;;;;;-2.00;99.90;;;;;;5070036;28;19909;-77
2022/12/14 04:08:38;;;;;;;;;;;-2.10;99.90;;;;;;5069285;28;19966;-77
2022/12/14 04:19:27;;;;;;;;;;;-1.90;99.90;;;;;;5070455;28;20395;-77
2022/12/14 04:21:55;;;;;;;;;;;-1.90;99.90;;;;;;5070669;28;20648;-77
2022/12/14 04:27:31;;;;;;;;;;;-2.00;99.90;;;;;;5070798;28;19927;-77
2022/12/14 04:29:59;;;;;;;;;;;-1.90;99.90;;;;;;5069114;28;19923;-77
2022/12/14 04:32:47;;;;;;;;;;;-1.90;99.90;;;;;;5070257;28;19983;-77
2022/12/14 04:35:32;;;;;;;;;;;-2.00;99.90;;;;;;5069932;28;19912;-76
2022/12/14 04:37:59;;;;;;;;;;;-1.90;99.90;;;;;;5068265;28;19909;-77
2022/12/14 04:40:32;;;;;;;;;;;-1.90;99.90;;;;;;5067890;28;19912;-75
2022/12/14 04:43:00;;;;;;;;;;;-1.90;99.90;;;;;;5069585;28;19913;-76
2022/12/14 04:45:31;;;;;;;;;;;-1.90;99.90;;;;;;5068168;28;19919;-76
2022/12/14 04:48:06;;;;;;;;;;;-1.80;99.90;;;;;;5068521;28;19927;-77
2022/12/14 04:50:38;;;;;;;;;;;-1.80;99.90;;;;;;5069513;28;19912;-77
2022/12/14 04:53:09;;;;;;;;;;;-1.80;99.90;;;;;;5068300;28;19913;-76
2022/12/14 04:55:38;;;;;;;;;;;-1.80;99.90;;;;;;5068794;28;19915;-77
2022/12/14 04:58:17;;;;;;;;;;;-1.80;99.90;;;;;;5067899;28;19912;-76
2022/12/14 05:01:01;;;;;;;;;;;-1.80;99.90;;;;;;5067571;28;20269;-76
2022/12/14 05:03:29;;;;;;;;;;;-1.80;99.90;;;;;;5067942;28;19920;-76
2022/12/14 05:06:16;;;;;;;;;;;-1.80;99.90;;;;;;5067253;28;20450;-76
2022/12/14 05:08:41;;;;;;;;;;;-1.80;99.90;;;;;;5068585;28;19912;-77
2022/12/14 05:11:10;;;;;;;;;;;-1.90;99.90;;;;;;5068992;28;19915;-77
2022/12/14 05:13:39;;;;;;;;;;;-2.00;99.90;;;;;;5069136;28;19912;-77
2022/12/14 05:16:06;;;;;;;;;;;-1.90;99.90;;;;;;5069407;28;19913;-77
2022/12/14 05:18:33;;;;;;;;;;;-1.90;99.90;;;;;;5067645;28;19908;-76
2022/12/14 05:20:58;;;;;;;;;;;-1.80;99.90;;;;;;5067663;28;20566;-76
2022/12/14 05:23:24;;;;;;;;;;;-1.90;99.90;;;;;;5068942;28;20489;-77
2022/12/14 05:25:49;;;;;;;;;;;-1.80;99.90;;;;;;5066980;28;20019;-76
2022/12/14 05:28:15;;;;;;;;;;;-1.90;99.90;;;;;;5067952;28;20356;-76
2022/12/14 05:30:40;;;;;;;;;;;-1.50;99.90;;;;;;5068859;28;20586;-76
2022/12/14 05:33:09;;;;;;;;;;;-1.90;99.90;;;;;;5068812;28;19913;-77
2022/12/14 05:35:35;;;;;;;;;;;-1.80;99.90;;;;;;5068292;28;20325;-75
2022/12/14 05:38:00;;;;;;;;;;;-1.70;99.90;;;;;;5067351;28;19912;-76
2022/12/14 05:40:26;;;;;;;;;;;-1.80;99.90;;;;;;5067364;28;19961;-76
2022/12/14 05:43:01;;;;;;;;;;;-1.80;99.90;;;;;;5066613;28;19919;-76
2022/12/14 05:45:27;;;;;;;;;;;-1.80;99.90;;;;;;5068613;28;19962;-76
2022/12/14 05:47:52;;;;;;;;;;;-1.80;99.90;;;;;;5067167;28;20343;-76
2022/12/14 05:50:18;;;;;;;;;;;-1.90;99.90;;;;;;5066921;28;19916;-76
2022/12/14 05:52:43;;;;;;;;;;;-1.90;99.90;;;;;;5068577;28;19947;-76
2022/12/14 05:55:09;;;;;;;;;;;-1.40;99.90;;;;;;5067511;28;20409;-77
2022/12/14 05:57:35;;;;;;;;;;;-1.80;99.90;;;;;;5066333;28;20011;-77
2022/12/14 06:00:00;;;;;;;;;;;-1.80;99.90;;;;;;5067106;28;19951;-77
2022/12/14 06:02:26;;;;;;;;;;;-1.80;99.90;;;;;;5066362;28;20013;-77
2022/12/14 06:04:51;;;;;;;;;;;-1.80;99.90;;;;;;5066439;28;19939;-76
2022/12/14 06:07:17;;;;;;;;;;;-1.40;99.90;;;;;;5068122;28;19920;-77
2022/12/14 06:09:42;;;;;;;;;;;-1.80;99.90;;;;;;5065992;28;19913;-77
2022/12/14 06:12:08;;;;;;;;;;;-1.70;99.90;;;;;;5066819;28;19912;-77
2022/12/14 06:14:33;;;;;;;;;;;-1.60;99.90;;;;;;5066119;28;19908;-77
2022/12/14 06:16:59;;;;;;;;;;;-1.90;99.90;;;;;;5066369;28;19916;-77
2022/12/14 06:19:24;;;;;;;;;;;-1.80;99.90;;;;;;5066420;28;19908;-76
2022/12/14 06:21:52;;;;;;;;;;;-1.80;99.90;;;;;;5067816;28;19916;-76
2022/12/14 06:24:18;;;;;;;;;;;-1.80;99.90;;;;;;5067484;28;19909;-77
2022/12/14 06:26:43;;;;;;;;;;;-1.80;99.90;;;;;;5066417;28;19943;-77
2022/12/14 06:29:14;;;;;;;;;;;-1.80;99.90;;;;;;5066274;28;20315;-77
2022/12/14 06:31:40;;;;;;;;;;;-1.80;99.90;;;;;;5065857;28;20026;-77
2022/12/14 06:34:05;;;;;;;;;;;-1.70;99.90;;;;;;5066268;28;20396;-77
2022/12/14 06:36:32;;;;;;;;;;;-1.70;99.90;;;;;;5066859;28;19909;-77
2022/12/14 06:39:00;;;;;;;;;;;-1.80;99.90;;;;;;5066786;28;19909;-77
2022/12/14 06:41:25;;;;;;;;;;;-1.00;99.90;;;;;;5066037;28;20620;-77
2022/12/14 06:43:52;;;;;;;;;;;-1.80;99.90;;;;;;5066396;28;19908;-76
2022/12/14 06:46:21;;;;;;;;;;;-1.80;99.90;;;;;;5067681;28;19957;-77
2022/12/14 06:48:51;;;;;;;;;;;-1.70;99.90;;;;;;5066083;28;19923;-76
2022/12/14 06:51:16;;;;;;;;;;;-1.80;99.90;;;;;;5066392;28;19908;-76
2022/12/14 06:53:42;;;;;;;;;;;-1.70;99.90;;;;;;5067313;28;19954;-77
2022/12/14 06:56:08;;;;;;;;;;;-0.80;99.90;;;;;;5066421;28;19912;-75
2022/12/14 06:58:34;;;;;;;;;;;-1.70;99.90;;;;;;5066613;28;19953;-77
2022/12/14 07:01:04;;;;;;;;;;;-1.60;99.90;;;;;;5066424;28;20250;-76
2022/12/14 07:03:30;;;;;;;;;;;-1.60;99.90;;;;;;5066819;28;19919;-77
2022/12/14 07:05:59;;;;;;;;;;;-1.50;99.90;;;;;;5067103;28;19908;-77
2022/12/14 07:08:24;;;;;;;;;;;-1.60;99.90;;;;;;5064899;28;19912;-76
2022/12/14 07:10:51;;;;;;;;;;;-1.50;99.90;;;;;;5065509;28;19919;-77
2022/12/14 07:13:16;;;;;;;;;;;-1.50;99.90;;;;;;5066960;28;19934;-77
2022/12/14 07:15:42;;;;;;;;;;;-1.40;99.90;;;;;;5065647;28;20293;-77
2022/12/14 07:18:07;;;;;;;;;;;-1.30;99.90;;;;;;5065480;28;19965;-77
2022/12/14 07:20:33;;;;;;;;;;;-1.30;99.90;;;;;;5065739;28;19913;-77
2022/12/14 07:22:58;;;;;;;;;;;-1.30;99.90;;;;;;5064599;28;20436;-76
2022/12/14 07:25:24;;;;;;;;;;;-1.40;99.90;;;;;;5065524;28;20385;-77
2022/12/14 07:27:50;;;;;;;;;;;-1.30;99.90;;;;;;5064877;28;19924;-76
2022/12/14 07:30:16;;;;;;;;;;;-1.20;99.90;;;;;;5066449;28;19931;-76
2022/12/14 07:32:41;;;;;;;;;;;-0.30;99.90;;;;;;5066651;28;20379;-75
2022/12/14 07:35:07;;;;;;;;;;;-1.30;99.90;;;;;;5064791;28;20400;-76
2022/12/14 07:37:32;;;;;;;;;;;-1.40;99.90;;;;;;5065090;28;19909;-77
2022/12/14 07:39:58;;;;;;;;;;;-1.50;99.90;;;;;;5065396;28;20010;-76
2022/12/14 07:42:23;;;;;;;;;;;-0.80;99.90;;;;;;5065327;28;19909;-76
2022/12/14 07:44:49;;;;;;;;;;;-0.40;99.90;;;;;;5065201;28;20357;-75
2022/12/14 07:47:14;;;;;;;;;;;-1.30;99.90;;;;;;5065530;28;20506;-76
2022/12/14 07:49:40;;;;;;;;;;;-1.30;99.90;;;;;;5065068;28;19908;-75
2022/12/14 07:52:05;;;;;;;;;;;-1.40;99.90;;;;;;5066073;28;19912;-76
2022/12/14 07:54:31;;;;;;;;;;;-1.40;99.90;;;;;;5066663;28;19997;-76
2022/12/14 07:56:57;;;;;;;;;;;-1.40;99.90;;;;;;5064866;28;19952;-75
2022/12/14 07:59:22;;;;;;;;;;;-1.30;99.90;;;;;;5064948;28;19955;-76
2022/12/14 08:01:50;;;;;;;;;;;-1.30;99.90;;;;;;5067291;28;19929;-76
2022/12/14 08:04:17;;;;;;;;;;;-0.70;99.90;;;;;;5066628;28;20426;-75
2022/12/14 08:06:43;;;;;;;;;;;-1.30;99.90;;;;;;5065456;28;19917;-76
2022/12/14 08:09:09;;;;;;;;;;;-1.40;99.90;;;;;;5064500;28;19912;-76
2022/12/14 08:11:34;;;;;;;;;;;-1.40;99.90;;;;;;5066725;28;19919;-76
2022/12/14 08:14:04;;;;;;;;;;;-0.50;99.90;;;;;;5066175;28;19927;-76
2022/12/14 08:16:30;;;;;;;;;;;-0.40;99.90;;;;;;5065324;28;19913;-76
2022/12/14 08:18:56;;;;;;;;;;;-1.30;99.90;;;;;;5064612;28;20300;-76
2022/12/14 08:21:22;;;;;;;;;;;-1.30;99.90;;;;;;5064963;28;19912;-76
2022/12/14 08:23:49;;;;;;;;;;;-1.40;99.90;;;;;;5064999;28;20361;-76
2022/12/14 08:26:14;;;;;;;;;;;-1.30;99.90;;;;;;5065483;28;20015;-76
2022/12/14 08:28:40;;;;;;;;;;;-1.30;99.90;;;;;;5067851;28;20007;-76
2022/12/14 08:31:16;;;;;;;;;;;-1.40;99.90;;;;;;5064922;28;19962;-76
2022/12/14 08:33:42;;;;;;;;;;;-1.30;99.90;;;;;;5065164;28;19966;-76
2022/12/14 08:36:09;;;;;;;;;;;-1.30;99.90;;;;;;5068435;28;19916;-76
2022/12/14 08:38:35;;;;;;;;;;;-1.30;99.90;;;;;;5070006;28;20469;-76
2022/12/14 08:41:04;;;;;;;;;;;-1.30;99.90;;;;;;5069745;28;20372;-75
2022/12/14 08:43:30;;;;;;;;;;;-1.30;99.90;;;;;;5069652;28;19938;-75
2022/12/14 08:45:55;;;;;;;;;;;-1.30;99.90;;;;;;5068017;28;19932;-76
2022/12/14 08:48:21;;;;;;;;;;;-1.20;99.90;;;;;;5067747;28;19971;-77
2022/12/14 08:50:46;;;;;;;;;;;-1.20;99.90;;;;;;5068760;28;19916;-76
2022/12/14 08:53:12;;;;;;;;;;;-1.10;99.90;;;;;;5068255;28;19959;-77
2022/12/14 08:55:37;;;;;;;;;;;-1.10;99.90;;;;;;5068062;28;20216;-77
2022/12/14 08:58:03;;;;;;;;;;;-1.10;99.90;;;;;;5068803;28;19909;-76
2022/12/14 09:00:28;;;;;;;;;;;-1.10;99.90;;;;;;5068691;28;19916;-77
2022/12/14 09:02:54;;;;;;;;;;;-1.20;99.90;;;;;;5069535;28;19921;-76
2022/12/14 09:05:19;;;;;;;;;;;-1.10;99.90;;;;;;5068190;28;19939;-76
2022/12/14 09:07:45;;;;;;;;;;;-0.90;99.90;;;;;;5068355;28;19969;-76
2022/12/14 09:10:11;;;;;;;;;;;-1.00;99.90;;;;;;5070163;28;20416;-76
2022/12/14 09:12:38;;;;;;;;;;;-0.90;99.90;;;;;;5069784;28;19909;-76
2022/12/14 09:15:04;;;;;;;;;;;-1.00;99.90;;;;;;5068416;28;19908;-76
2022/12/14 09:17:29;;;;;;;;;;;-0.90;99.90;;;;;;5067873;28;19936;-76
2022/12/14 09:19:56;;;;;;;;;;;-0.80;99.90;;;;;;5068416;28;19908;-76
2022/12/14 09:22:22;;;;;;;;;;;-0.80;99.90;;;;;;5067966;28;19909;-75
2022/12/14 09:24:49;;;;;;;;;;;0.00;99.90;;;;;;5068918;28;19908;-75
2022/12/14 09:27:15;;;;;;;;;;;-0.80;99.90;;;;;;5070550;28;19921;-76
2022/12/14 09:29:40;;;;;;;;;;;-0.80;99.90;;;;;;5071026;28;20031;-75
2022/12/14 09:32:06;;;;;;;;;;;-0.70;99.90;;;;;;5067471;28;20464;-76
2022/12/14 09:34:32;;;;;;;;;;;-0.60;99.90;;;;;;5067430;28;19919;-75
2022/12/14 09:36:57;;;;;;;;;;;-0.70;99.90;;;;;;5066987;28;20368;-76
2022/12/14 09:39:23;;;;;;;;;;;-0.60;99.90;;;;;;5066790;28;19909;-77
2022/12/14 09:41:52;;;;;;;;;;;-0.60;99.90;;;;;;5067140;28;19913;-76
2022/12/14 09:44:23;;;;;;;;;;;-0.60;99.90;;;;;;5067916;28;20440;-76
2022/12/14 09:46:52;;;;;;;;;;;-0.60;99.90;;;;;;5066109;28;20435;-76
2022/12/14 09:49:25;;;;;;;;;;;-0.50;99.90;;;;;;5068362;28;20427;-76
2022/12/14 09:51:52;;;;;;;;;;;-0.50;99.90;;;;;;5068036;28;20012;-76
2022/12/14 09:54:19;;;;;;;;;;;-0.50;99.90;;;;;;5067769;28;19913;-76
2022/12/14 09:56:45;;;;;;;;;;;-0.50;99.90;;;;;;5068325;28;20379;-76
2022/12/14 09:59:13;;;;;;;;;;;-0.50;99.90;;;;;;5067070;28;20005;-76
2022/12/14 10:01:57;;;;;;;;;;;-0.50;99.90;;;;;;5066227;28;19920;-77
2022/12/14 10:04:35;;;;;;;;;;;-0.50;99.90;;;;;;5066798;28;19908;-76
2022/12/14 10:07:03;;;;;;;;;;;-0.50;99.90;;;;;;5067504;28;19927;-76
2022/12/14 10:09:44;;;;;;;;;;;-0.50;99.90;;;;;;5066428;28;20542;-76
2022/12/14 10:12:27;;;;;;;;;;;-0.50;99.90;;;;;;5067769;28;20376;-76
2022/12/14 10:15:02;;;;;;;;;;;-0.50;99.90;;;;;;5066553;28;19920;-76
2022/12/14 10:17:28;;;;;;;;;;;-0.40;99.90;;;;;;5066104;28;20007;-76
2022/12/14 10:19:59;;;;;;;;;;;-0.40;99.90;;;;;;5066766;28;20460;-76
2022/12/14 10:22:30;;;;;;;;;;;-0.30;99.90;;;;;;5067763;28;20276;-76
2022/12/14 10:24:58;;;;;;;;;;;-0.30;99.90;;;;;;5066225;28;19920;-76
2022/12/14 10:27:25;;;;;;;;;;;-0.20;99.90;;;;;;5066046;28;19960;-76
2022/12/14 10:30:02;;;;;;;;;;;-0.20;99.90;;;;;;5066034;28;20288;-76
2022/12/14 10:32:29;;;;;;;;;;;-0.20;99.90;;;;;;5065883;28;19920;-76
2022/12/14 10:34:54;;;;;;;;;;;-0.10;99.90;;;;;;5065869;28;20379;-76
2022/12/14 10:37:20;;;;;;;;;;;0.00;99.90;;;;;;5065667;28;19908;-77
2022/12/14 10:39:45;;;;;;;;;;;0.10;99.90;;;;;;5065759;28;20599;-76
2022/12/14 10:42:18;;;;;;;;;;;0.10;99.90;;;;;;5065692;28;19908;-76
2022/12/14 10:44:47;;;;;;;;;;;0.10;99.90;;;;;;5065633;28;19908;-76
2022/12/14 10:47:33;;;;;;;;;;;0.10;99.90;;;;;;5066063;28;19917;-76
2022/12/14 10:50:05;;;;;;;;;;;0.10;99.90;;;;;;5066953;28;19916;-76
2022/12/14 10:52:36;;;;;;;;;;;0.10;99.90;;;;;;5066143;28;19913;-76
2022/12/14 10:55:03;;;;;;;;;;;0.10;99.90;;;;;;5066177;28;20381;-76
2022/12/14 10:57:29;;;;;;;;;;;0.10;99.90;;;;;;5065293;28;19917;-76
2022/12/14 10:59:55;;;;;;;;;;;0.10;99.90;;;;;;5067620;28;19912;-76
2022/12/14 11:02:27;;;;;;;;;;;0.20;99.90;;;;;;5065257;28;19947;-76
2022/12/14 11:04:55;;;;;;;;;;;0.00;99.90;;;;;;5067269;28;19991;-76
2022/12/14 11:07:32;;;;;;;;;;;0.10;99.90;;;;;;5066302;28;19966;-76
2022/12/14 11:10:13;;;;;;;;;;;0.00;99.90;;;;;;5068138;28;19962;-76
2022/12/14 11:12:38;;;;;;;;;;;0.10;99.90;;;;;;5066921;28;20121;-76
2022/12/14 11:15:06;;;;;;;;;;;0.20;99.90;;;;;;5066297;28;19912;-76
2022/12/14 11:17:31;;;;;;;;;;;0.20;99.90;;;;;;5065953;28;19996;-76
2022/12/14 11:20:09;;;;;;;;;;;0.20;99.90;;;;;;5066399;28;20363;-76
2022/12/14 11:22:48;;;;;;;;;;;0.40;99.90;;;;;;5067009;28;20008;-76
2022/12/14 11:25:26;;;;;;;;;;;0.20;99.90;;;;;;5066536;28;20438;-76
2022/12/14 11:27:52;;;;;;;;;;;0.30;99.90;;;;;;5068936;28;19917;-76
2022/12/14 11:30:18;;;;;;;;;;;0.20;99.90;;;;;;5067160;28;19912;-77
2022/12/14 11:32:47;;;;;;;;;;;0.20;99.90;;;;;;5067833;28;20006;-77
2022/12/14 11:35:17;;;;;;;;;;;0.30;99.90;;;;;;5068527;28;19920;-77
2022/12/14 11:37:43;;;;;;;;;;;0.30;99.90;;;;;;5065765;28;19909;-76
2022/12/14 11:40:25;;;;;;;;;;;0.30;99.90;;;;;;5065558;28;19916;-76
2022/12/14 11:42:55;;;;;;;;;;;0.30;99.90;;;;;;5065359;28;20331;-75
2022/12/14 11:45:24;;;;;;;;;;;0.30;99.90;;;;;;5066108;28;20011;-77
2022/12/14 11:48:08;;;;;;;;;;;0.30;99.90;;;;;;5065111;28;19974;-76
2022/12/14 11:50:34;;;;;;;;;;;0.30;99.90;;;;;;5064685;28;20522;-76
2022/12/14 11:53:09;;;;;;;;;;;0.40;99.90;;;;;;5065163;28;19932;-77
2022/12/14 11:55:39;;;;;;;;;;;0.20;99.90;;;;;;5065874;28;19908;-76
2022/12/14 11:58:12;;;;;;;;;;;0.20;99.90;;;;;;5064938;28;20273;-77
2022/12/14 12:00:43;;;;;;;;;;;0.30;99.90;;;;;;5066714;28;19916;-76
2022/12/14 12:03:38;;;;;;;;;;;0.30;99.90;;;;;;5065833;28;19968;-76
2022/12/14 12:06:06;;;;;;;;;;;0.40;99.90;;;;;;5051377;28;20346;-76
2022/12/14 12:08:32;;;;;;;;;;;0.40;99.90;;;;;;5066559;28;19948;-76
2022/12/14 12:10:59;;;;;;;;;;;0.50;99.90;;;;;;5069181;28;20007;-76
2022/12/14 12:13:25;;;;;;;;;;;0.40;99.90;;;;;;5070171;28;19938;-77
2022/12/14 12:16:02;;;;;;;;;;;0.50;99.90;;;;;;5069139;28;19912;-76
2022/12/14 12:18:34;;;;;;;;;;;0.50;99.90;;;;;;5070435;28;19974;-77
2022/12/14 12:20:59;;;;;;;;;;;0.50;99.90;;;;;;5069859;28;19916;-77
2022/12/14 12:23:48;;;;;;;;;;;0.60;99.90;;;;;;5068619;28;20419;-75
2022/12/14 12:26:18;;;;;;;;;;;0.50;99.90;;;;;;5040127;28;20391;-76
2022/12/14 12:28:46;;;;;;;;;;;0.50;99.90;;;;;;5070574;28;19942;-75
2022/12/14 12:31:15;;;;;;;;;;;0.50;99.90;;;;;;5070405;28;19962;-76
2022/12/14 12:33:51;;;;;;;;;;;0.50;99.90;;;;;;5070507;28;19916;-77
2022/12/14 12:36:19;;;;;;;;;;;0.50;99.90;;;;;;5069637;28;19908;-75
2022/12/14 12:38:55;;;;;;;;;;;0.50;99.90;;;;;;5070051;28;19912;-77
2022/12/14 12:41:32;;;;;;;;;;;0.50;99.90;;;;;;5069314;28;19908;-76
2022/12/14 12:44:01;;;;;;;;;;;0.70;99.90;;;;;;5070009;28;19912;-77
2022/12/14 12:46:28;;;;;;;;;;;0.60;99.90;;;;;;5068275;28;19913;-75
2022/12/14 12:49:04;;;;;;;;;;;0.40;99.90;;;;;;5068343;28;20304;-76
2022/12/14 12:51:33;;;;;;;;;;;0.40;99.90;;;;;;5068694;28;19908;-76
2022/12/14 12:54:07;;;;;;;;;;;0.50;99.90;;;;;;5069331;28;20443;-77
2022/12/14 12:56:41;;;;;;;;;;;0.50;99.90;;;;;;5068954;28;20047;-76
2022/12/14 12:59:10;;;;;;;;;;;0.60;99.90;;;;;;5068060;28;19912;-76
2022/12/14 13:01:38;;;;;;;;;;;0.50;99.90;;;;;;5069041;28;19931;-76
2022/12/14 13:04:10;;;;;;;;;;;0.40;99.90;;;;;;5067129;28;19944;-76
2022/12/14 13:06:39;;;;;;;;;;;0.40;99.90;;;;;;5067850;28;20007;-76
2022/12/14 13:09:15;;;;;;;;;;;0.30;99.90;;;;;;5068835;28;19919;-76
2022/12/14 13:11:41;;;;;;;;;;;1.00;99.90;;;;;;5067877;28;19958;-76
2022/12/14 13:14:13;;;;;;;;;;;0.30;99.90;;;;;;5067823;28;19975;-75
2022/12/14 13:16:40;;;;;;;;;;;0.30;99.90;;;;;;5067952;28;19924;-76
2022/12/14 13:19:19;;;;;;;;;;;1.00;99.90;;;;;;5067317;28;19908;-76
2022/12/14 13:21:47;;;;;;;;;;;0.60;99.90;;;;;;5067329;28;20699;-77
2022/12/14 13:24:15;;;;;;;;;;;0.30;99.90;;;;;;5067532;28;20007;-75
2022/12/14 13:26:55;;;;;;;;;;;0.60;99.90;;;;;;5068546;28;19955;-76
2022/12/14 13:29:24;;;;;;;;;;;0.30;99.90;;;;;;5066687;28;20355;-76
2022/12/14 13:31:53;;;;;;;;;;;0.30;99.90;;;;;;5067797;28;20396;-76
2022/12/14 13:34:30;;;;;;;;;;;0.30;99.90;;;;;;5068086;28;19963;-77
2022/12/14 13:37:20;;;;;;;;;;;0.20;99.90;;;;;;5067399;28;19919;-75
2022/12/14 13:40:25;;;;;;;;;;;0.20;99.90;;;;;;5068643;28;19913;-76
2022/12/14 13:43:08;;;;;;;;;;;0.30;99.90;;;;;;5009729;28;19924;-76
2022/12/14 13:45:38;;;;;;;;;;;0.30;99.90;;;;;;5025947;28;19913;-76
2022/12/14 13:48:15;;;;;;;;;;;0.30;99.90;;;;;;5060301;28;19962;-76
2022/12/14 13:50:41;;;;;;;;;;;0.30;99.90;;;;;;5068256;28;19908;-77
2022/12/14 13:53:13;;;;;;;;;;;0.40;99.90;;;;;;5068589;28;19908;-76
2022/12/14 13:55:45;;;;;;;;;;;0.30;99.90;;;;;;5067209;28;20311;-76
2022/12/14 13:58:29;;;;;;;;;;;0.30;99.90;;;;;;5067558;28;19908;-77
2022/12/14 14:00:55;;;;;;;;;;;0.30;99.90;;;;;;5068037;28;19944;-76
2022/12/14 14:03:32;;;;;;;;;;;0.30;99.90;;;;;;5066399;28;19984;-75
2022/12/14 14:06:10;;;;;;;;;;;0.20;99.90;;;;;;5067674;28;19913;-75
2022/12/14 14:08:36;;;;;;;;;;;0.30;99.90;;;;;;5066796;28;20305;-76
2022/12/14 14:11:17;;;;;;;;;;;0.20;99.90;;;;;;5066952;28;20320;-76
2022/12/14 14:13:43;;;;;;;;;;;0.30;99.90;;;;;;5066756;28;19912;-75
2022/12/14 14:16:14;;;;;;;;;;;0.30;99.90;;;;;;5068270;28;20302;-77
2022/12/14 14:18:58;;;;;;;;;;;0.30;99.90;;;;;;5065804;28;20720;-75
2022/12/14 14:21:39;;;;;;;;;;;0.30;99.90;;;;;;5066468;28;19965;-77
2022/12/14 14:24:11;;;;;;;;;;;0.20;99.90;;;;;;5067267;28;19918;-78
2022/12/14 14:26:39;;;;;;;;;;;0.20;99.90;;;;;;5067734;28;19923;-77
2022/12/14 14:29:11;;;;;;;;;;;0.20;99.90;;;;;;5067327;28;19955;-78
2022/12/14 14:31:47;;;;;;;;;;;0.20;99.90;;;;;;5068025;28;19913;-77
2022/12/14 14:34:36;;;;;;;;;;;0.10;99.90;;;;;;5067928;28;20361;-77
2022/12/14 14:37:20;;;;;;;;;;;0.10;99.90;;;;;;5062725;28;19950;-77
2022/12/14 14:39:57;;;;;;;;;;;0.10;99.90;;;;;;5068399;28;19917;-76
2022/12/14 14:42:25;;;;;;;;;;;0.10;99.90;;;;;;5067306;28;19915;-76
2022/12/14 14:45:04;;;;;;;;;;;0.10;99.90;;;;;;5067563;28;20480;-76
2022/12/14 14:47:36;;;;;;;;;;;0.10;99.90;;;;;;5068834;28;20385;-78